Bostic Yard, North Carolina
Current Conditions -  °F | °C
As of 12:15 PM on Friday 24 Oct 2014 (Local Time) from KFQD Reporting Station
Clear Clear  
Wind Chill: 61°   Ceiling: Unl
Heat Index: 61°   Visibility: 10mi
Dew Point: 40°   Wind: 3mph
Humidity: 46%   Direction: 140°SE
Pressure: 30.09"   Gusts: NA
Location:  35.4977°N, 81.7958°W
Report Text: KFQD 241615Z AUTO 14003KT 10SM CLR 16/05 A3009 RMK AO2 T01630045
Loading
Personal Weather Stations






























Interactive Weather Map
Tropical Storm Tracking
New forecast layout! Learn more

10-Day Weather Forecast

Advertisements
Track Severe Weather on mobile